Time;durP1;ratioP1;P1;durP2;ratioP2;P2;SDS_P1;SDS_P2;PMS_P1;PMS_P2;Temp;Humidity;BMP_temperature;BMP_pressure;BME280_temperature;BME280_humidity;BME280_pressure;Samples;Min_cycle;Max_cycle;Signal;HPM_P1;HPM_P2
2022/01/23 00:00:18;;;;;;;75.63;31.77;;;;;;;-6.00;100.00;99914.91;1711982;83;21537;-67
2022/01/23 00:02:38;;;;;;;270.23;85.07;;;;;;;-6.00;100.00;99911.92;1698214;83;21137;-68
2022/01/23 00:05:07;;;;;;;179.83;60.50;;;;;;;-5.98;100.00;99919.63;1713923;83;21542;-68
2022/01/23 00:07:35;;;;;;;164.97;52.93;;;;;;;-5.99;100.00;99917.48;1713960;83;21588;-67
2022/01/23 00:10:04;;;;;;;601.87;213.23;;;;;;;-5.99;100.00;99919.19;1713963;83;21132;-68
2022/01/23 00:12:36;;;;;;;537.83;202.33;;;;;;;-5.97;100.00;99923.95;1714301;83;21099;-68
2022/01/23 00:17:43;;;;;;;179.43;65.40;;;;;;;-5.97;100.00;99929.08;1714226;83;21108;-67
2022/01/23 00:20:14;;;;;;;196.97;70.53;;;;;;;-5.96;100.00;99924.00;1714147;83;21565;-68
2022/01/23 00:30:41;;;;;;;133.30;52.00;;;;;;;-5.88;100.00;99926.72;1712586;83;21073;-67
2022/01/23 00:33:09;;;;;;;139.77;49.53;;;;;;;-5.86;100.00;99928.91;1712486;83;21340;-66
2022/01/23 00:35:37;;;;;;;286.63;93.47;;;;;;;-5.81;100.00;99933.73;1712453;83;21680;-67
2022/01/23 00:38:06;;;;;;;433.53;145.17;;;;;;;-5.79;100.00;99929.94;1712451;83;21097;-68
2022/01/23 00:40:34;;;;;;;716.47;263.80;;;;;;;-5.75;100.00;99939.03;1712377;83;21112;-68
2022/01/23 00:43:06;;;;;;;748.03;293.60;;;;;;;-5.72;100.00;99933.97;1712096;83;21132;-68
2022/01/23 00:45:35;;;;;;;511.90;189.00;;;;;;;-5.66;100.00;99940.08;1712005;83;21108;-67
2022/01/23 00:48:05;;;;;;;94.03;39.50;;;;;;;-5.63;100.00;99940.17;1712015;83;21076;-66
2022/01/23 00:50:38;;;;;;;79.43;34.27;;;;;;;-5.59;100.00;99933.88;1712584;83;21806;-68
2022/01/23 00:53:10;;;;;;;139.53;48.63;;;;;;;-5.55;100.00;99936.08;1712536;83;21246;-67
2022/01/23 00:55:40;;;;;;;44.93;21.93;;;;;;;-5.51;100.00;99940.47;1712605;83;21558;-68
2022/01/23 00:58:08;;;;;;;46.48;22.22;;;;;;;-5.49;100.00;99931.97;1711040;83;21043;-68
2022/01/23 01:00:34;;;;;;;43.67;21.07;;;;;;;-5.47;100.00;99929.45;1733904;82;21041;-68
2022/01/23 01:03:02;;;;;;;56.73;22.87;;;;;;;-5.44;100.00;99923.10;1743210;82;21718;-68
2022/01/23 01:05:29;;;;;;;85.13;32.80;;;;;;;-5.40;100.00;99925.34;1743574;82;21049;-69
2022/01/23 01:07:58;;;;;;;532.67;187.07;;;;;;;-5.39;100.00;99925.36;1743497;82;21041;-68
2022/01/23 01:10:33;;;;;;;489.70;161.03;;;;;;;-5.38;100.00;99921.98;1716733;82;21128;-67
2022/01/23 01:12:59;;;;;;;410.43;136.23;;;;;;;-5.39;100.00;99920.22;1711180;83;21081;-66
2022/01/23 01:16:00;;;;;;;399.47;127.53;;;;;;;-5.42;100.00;99922.73;1712260;83;21137;-65
2022/01/23 01:31:30;;;;;;;62.43;26.10;;;;;;;-5.75;100.00;99936.47;1685538;85;21080;-67
2022/01/23 01:34:03;;;;;;;240.10;78.40;;;;;;;-5.81;100.00;99931.17;1685516;84;21667;-67
2022/01/23 01:36:31;;;;;;;89.90;36.87;;;;;;;-5.84;100.00;99937.52;1685262;85;21152;-69
2022/01/23 01:38:54;;;;;;;678.65;233.25;;;;;;;-5.87;100.00;99931.00;1685592;84;21076;-67
2022/01/23 01:41:22;;;;;;;770.33;291.17;;;;;;;-5.91;100.00;99927.93;1680822;84;21168;-67
2022/01/23 01:43:50;;;;;;;728.23;273.80;;;;;;;-5.90;100.00;99929.66;1689595;82;21061;-67
2022/01/23 01:46:17;;;;;;;312.13;121.33;;;;;;;-5.89;100.00;99933.94;1743691;82;21593;-67
2022/01/23 01:48:45;;;;;;;129.37;49.37;;;;;;;-5.87;100.00;99938.70;1742289;82;21056;-68
2022/01/23 01:51:15;;;;;;;58.13;27.23;;;;;;;-5.85;100.00;99942.17;1744053;82;21084;-68
2022/01/23 01:53:47;;;;;;;121.67;45.13;;;;;;;-5.85;100.00;99947.30;1743811;82;21092;-67
2022/01/23 01:56:10;;;;;;;94.13;37.67;;;;;;;-5.83;100.00;99949.50;1742954;82;21557;-66
2022/01/23 02:09:42;;;;;;;61.70;25.53;;;;;;;-5.65;100.00;99958.08;1749548;82;21136;-68
2022/01/23 02:51:03;;;;;;;53.70;23.73;;;;;;;-5.44;100.00;99996.24;1717422;83;21068;-68
2022/01/23 02:53:42;;;;;;;59.77;24.00;;;;;;;-5.41;100.00;100001.44;1717382;83;21120;-68
2022/01/23 02:56:06;;;;;;;72.80;28.77;;;;;;;-5.39;100.00;99996.36;1716542;83;21088;-67
2022/01/23 02:58:55;;;;;;;47.77;20.13;;;;;;;-5.39;100.00;100009.19;1718277;83;21478;-69
2022/01/23 03:01:11;;;;;;;46.97;20.50;;;;;;;-5.40;100.00;100007.05;1701540;84;21176;-68
2022/01/23 03:03:56;;;;;;;39.40;17.77;;;;;;;-5.42;100.00;100007.42;1704515;84;21364;-71
2022/01/23 03:09:53;;;;;;;73.23;31.57;;;;;;;-5.44;100.00;100019.34;1633368;85;21542;-68
2022/01/23 03:14:25;;;;;;;97.10;37.50;;;;;;;-5.37;100.00;100023.80;1676686;85;22287;-70
2022/01/23 03:30:14;;;;;;;40.83;19.57;;;;;;;-5.12;100.00;100034.69;1677437;85;21604;-67
2022/01/23 03:32:36;;;;;;;39.30;17.23;;;;;;;-5.10;100.00;100042.02;1675111;85;21116;-67
2022/01/23 03:34:56;;;;;;;;;;;;;;;-5.09;100.00;100046.31;1679225;85;21132;-65
2022/01/23 03:37:22;;;;;;;42.57;18.30;;;;;;;-5.11;100.00;100057.84;1677202;85;20238;-65
2022/01/23 03:39:49;;;;;;;49.20;21.07;;;;;;;-5.13;100.00;100065.03;1677670;85;21664;-65
2022/01/23 03:42:15;;;;;;;36.63;17.73;;;;;;;-5.16;100.00;100067.11;1677316;85;21085;-66
2022/01/23 03:44:57;;;;;;;107.20;32.77;;;;;;;-5.20;100.00;100068.28;1677373;85;21018;-66
2022/01/23 03:47:22;;;;;;;38.67;17.63;;;;;;;-5.24;100.00;100070.34;1675797;85;21121;-67
2022/01/23 03:49:43;;;;;;;42.00;18.90;;;;;;;-5.26;100.00;100085.69;1676725;85;21137;-67
2022/01/23 03:52:12;;;;;;;30.83;16.33;;;;;;;-5.29;100.00;100087.77;1688357;84;21170;-67
2022/01/23 03:54:40;;;;;;;97.20;29.43;;;;;;;-5.30;100.00;100092.43;1706219;84;21069;-67
2022/01/23 03:57:07;;;;;;;63.00;23.77;;;;;;;-5.31;100.00;100089.42;1706066;84;21124;-68
2022/01/23 03:59:35;;;;;;;46.80;19.73;;;;;;;-5.31;100.00;100093.27;1708534;81;21021;-65
2022/01/23 04:02:04;;;;;;;38.40;18.63;;;;;;;-5.27;100.00;100095.09;1719003;83;21068;-68
2022/01/23 04:04:41;;;;;;;43.27;19.47;;;;;;;-5.24;100.00;100097.30;1719323;83;21111;-68
2022/01/23 04:07:00;;;;;;;42.13;19.13;;;;;;;-5.21;100.00;100103.78;1717217;83;21104;-66
2022/01/23 04:09:29;;;;;;;42.03;18.53;;;;;;;-5.23;100.00;100101.16;1719153;82;21517;-68
2022/01/23 04:11:58;;;;;;;37.13;17.50;;;;;;;-5.20;100.00;100105.50;1718760;83;21072;-66
2022/01/23 04:14:25;;;;;;;38.03;16.97;;;;;;;-5.19;100.00;100116.25;1692196;83;21104;-68
2022/01/23 04:19:42;;;;;;;30.43;14.47;;;;;;;-5.15;100.00;100119.36;1721751;82;21103;-68
2022/01/23 04:45:13;;;;;;;40.77;14.90;;;;;;;-5.02;100.00;100139.37;1678764;84;21665;-67
2022/01/23 05:00:15;;;;;;;40.97;15.60;;;;;;;-4.96;100.00;100187.05;1652262;86;21080;-66
2022/01/23 05:05:08;;;;;;;21.80;10.47;;;;;;;-4.98;100.00;100188.70;1706099;83;21278;-66
2022/01/23 05:07:55;;;;;;;28.73;11.30;;;;;;;-4.98;100.00;100196.83;1692195;83;21074;-66
2022/01/23 05:10:22;;;;;;;19.87;9.87;;;;;;;-4.99;100.00;100201.11;1699802;84;21120;-66
2022/01/23 05:12:50;;;;;;;25.80;10.40;;;;;;;-4.98;100.00;100216.96;1662323;84;21073;-66
2022/01/23 05:15:17;;;;;;;234.77;70.47;;;;;;;-4.99;100.00;100221.66;1705842;84;21088;-67
2022/01/23 05:17:45;;;;;;;202.80;63.47;;;;;;;-4.99;100.00;100221.66;1705811;84;21046;-65
2022/01/23 05:20:15;;;;;;;154.67;50.50;;;;;;;-4.98;100.00;100225.95;1705797;83;21053;-65
2022/01/23 05:22:47;;;;;;;23.53;11.33;;;;;;;-4.97;100.00;100227.71;1700398;83;21152;-65
2022/01/23 05:25:21;;;;;;;60.57;22.80;;;;;;;-4.98;100.00;100232.38;1689572;83;21061;-67
2022/01/23 05:27:45;;;;;;;99.73;33.07;;;;;;;-4.99;100.00;100244.77;1682251;83;21601;-67
2022/01/23 05:30:12;;;;;;;20.50;10.83;;;;;;;-4.99;100.00;100246.05;1677585;85;21105;-65
2022/01/23 05:32:41;;;;;;;24.10;11.43;;;;;;;-5.01;100.00;100245.14;1695277;84;21132;-65
2022/01/23 05:35:11;;;;;;;25.43;9.98;;;;;;;-5.00;100.00;100252.42;1705989;84;21535;-64
2022/01/23 05:37:41;;;;;;;19.13;9.77;;;;;;;-5.02;100.00;100252.38;1706037;84;21077;-65
2022/01/23 05:40:12;;;;;;;46.10;18.40;;;;;;;-5.01;100.00;100261.84;1693675;83;21137;-65
2022/01/23 05:42:41;;;;;;;28.27;11.57;;;;;;;-4.99;100.00;100270.45;1677379;85;21097;-67
2022/01/23 05:45:09;;;;;;;29.33;13.53;;;;;;;-4.97;100.00;100271.37;1677649;85;21659;-66
2022/01/23 05:47:54;;;;;;;22.00;11.27;;;;;;;-4.94;100.00;100272.73;1672797;84;21148;-64
2022/01/23 05:50:40;;;;;;;94.43;32.67;;;;;;;-4.96;100.00;100278.23;1691825;84;21068;-67
2022/01/23 05:53:25;;;;;;;22.17;11.70;;;;;;;-4.94;100.00;100289.43;1700418;82;21123;-64
2022/01/23 05:56:05;;;;;;;24.40;12.40;;;;;;;-4.91;100.00;100293.78;1691066;84;21062;-65
2022/01/23 05:58:37;;;;;;;35.90;15.07;;;;;;;-4.93;100.00;100295.01;1675385;84;21034;-66
2022/01/23 06:01:03;;;;;;;28.33;12.93;;;;;;;-4.93;100.00;100300.14;1684881;84;21170;-66
2022/01/23 06:03:30;;;;;;;29.30;13.70;;;;;;;-4.91;100.00;100304.91;1690277;84;21048;-66
2022/01/23 06:06:03;;;;;;;85.33;21.63;;;;;;;-4.92;100.00;100318.60;1696068;84;22172;-66
2022/01/23 06:08:30;;;;;;;27.77;12.57;;;;;;;-4.92;100.00;100326.31;1677662;84;21118;-66
2022/01/23 06:10:57;;;;;;;24.67;12.10;;;;;;;-4.91;100.00;100330.60;1686619;83;21034;-67
2022/01/23 06:13:26;;;;;;;28.20;13.40;;;;;;;-4.91;100.00;100337.45;1689624;82;21162;-66
2022/01/23 06:15:54;;;;;;;56.30;22.70;;;;;;;-4.90;100.00;100334.94;1666125;82;21150;-67
2022/01/23 06:18:21;;;;;;;47.80;19.90;;;;;;;-4.90;100.00;100342.64;1679439;83;21089;-65
2022/01/23 06:21:07;;;;;;;29.10;13.27;;;;;;;-4.89;100.00;100339.23;1693788;83;21089;-66
2022/01/23 06:23:54;;;;;;;89.97;28.80;;;;;;;-4.86;100.00;100349.58;1668911;83;21116;-66
2022/01/23 06:26:17;;;;;;;268.77;89.47;;;;;;;-4.86;100.00;100356.00;1695968;84;21170;-66
2022/01/23 06:28:54;;;;;;;30.67;14.30;;;;;;;-4.80;100.00;100362.17;1694762;83;21673;-66
2022/01/23 06:31:20;;;;;;;25.13;11.83;;;;;;;-4.75;100.00;100363.16;1705657;84;21073;-67
2022/01/23 06:33:47;;;;;;;27.20;12.43;;;;;;;-4.74;100.00;100370.03;1698256;83;21081;-66
2022/01/23 06:36:14;;;;;;;49.63;20.33;;;;;;;-4.74;100.00;100368.75;1698056;84;21251;-66
2022/01/23 06:38:41;;;;;;;33.43;14.27;;;;;;;-4.71;100.00;100364.58;1705431;83;21147;-68
2022/01/23 06:41:08;;;;;;;25.97;12.43;;;;;;;-4.68;100.00;100363.38;1705530;83;21054;-66
2022/01/23 06:43:47;;;;;;;48.90;18.27;;;;;;;-4.68;100.00;100375.36;1696569;83;21680;-66
2022/01/23 06:46:15;;;;;;;57.60;21.47;;;;;;;-4.71;100.00;100377.85;1683134;83;21060;-65
2022/01/23 06:48:43;;;;;;;53.17;21.60;;;;;;;-4.67;100.00;100391.22;1699815;84;21088;-65
2022/01/23 06:51:09;;;;;;;42.47;17.47;;;;;;;-4.67;100.00;100404.07;1691538;84;21065;-64
2022/01/23 06:53:35;;;;;;;249.37;77.23;;;;;;;-4.70;100.00;100398.85;1695211;83;21544;-64
2022/01/23 06:56:02;;;;;;;44.43;20.60;;;;;;;-4.74;100.00;100397.02;1697522;83;21593;-67
2022/01/23 06:58:31;;;;;;;34.87;17.20;;;;;;;-4.72;100.00;100399.22;1702084;83;21084;-66
2022/01/23 07:00:59;;;;;;;34.43;17.80;;;;;;;-4.72;100.00;100405.64;1678567;83;22002;-65
2022/01/23 07:03:30;;;;;;;43.03;18.80;;;;;;;-4.73;100.00;100411.62;1700343;83;21058;-66
2022/01/23 07:06:15;;;;;;;35.67;17.37;;;;;;;-4.74;100.00;100417.57;1705963;83;21144;-64
2022/01/23 07:08:46;;;;;;;28.73;15.10;;;;;;;-4.69;100.00;100421.17;1701447;83;21100;-67
2022/01/23 07:11:15;;;;;;;39.87;17.60;;;;;;;-4.66;100.00;100434.10;1689521;83;21104;-65
2022/01/23 07:13:52;;;;;;;39.90;17.10;;;;;;;-4.66;100.00;100430.24;1681555;85;21088;-67
2022/01/23 07:16:26;;;;;;;42.33;18.27;;;;;;;-4.63;100.00;100431.61;1682707;85;21270;-67
2022/01/23 07:18:57;;;;;;;31.50;15.90;;;;;;;-4.54;100.00;100434.44;1698979;83;22086;-67
2022/01/23 07:21:26;;;;;;;49.70;19.77;;;;;;;-4.39;100.00;100440.45;1708472;83;21304;-66
2022/01/23 07:23:53;;;;;;;55.15;21.33;;;;;;;-4.27;100.00;100447.64;1704822;83;21029;-65
2022/01/23 07:26:26;;;;;;;45.88;19.42;;;;;;;-4.07;100.00;100453.30;1713227;82;21044;-65
2022/01/23 07:28:57;;;;;;;96.32;33.67;;;;;;;-3.91;100.00;100450.73;1707836;83;21781;-65
2022/01/23 07:31:55;;;;;;;94.80;33.63;;;;;;;-3.76;100.00;100452.86;1709522;83;21132;-64
2022/01/23 07:34:05;;;;;;;37.03;16.75;;;;;;;-3.64;100.00;100463.03;1707536;83;21081;-65
2022/01/23 07:36:34;;;;;;;30.68;14.25;;;;;;;-3.54;100.00;100480.01;1712539;83;21137;-66
2022/01/23 07:39:04;;;;;;;31.52;14.13;;;;;;;-3.56;100.00;100482.56;1697010;83;21107;-67
2022/01/23 07:41:39;;;;;;;36.68;15.68;;;;;;;-3.56;100.00;100481.70;1696847;83;22157;-65
2022/01/23 07:44:08;;;;;;;32.13;13.95;;;;;;;-3.48;100.00;100480.17;1711340;83;21695;-66
2022/01/23 07:46:36;;;;;;;27.55;12.65;;;;;;;-3.31;100.00;100491.78;1709969;83;21069;-65
2022/01/23 07:49:13;;;;;;;29.92;13.95;;;;;;;-3.18;100.00;100496.38;1710475;83;21085;-65
2022/01/23 07:51:42;;;;;;;21.73;11.12;;;;;;;-3.09;100.00;100498.73;1691814;83;21057;-66
2022/01/23 07:54:27;;;;;;;52.90;20.50;;;;;;;-3.10;100.00;100504.73;1713446;83;21581;-66
2022/01/23 07:56:56;;;;;;;32.88;14.60;;;;;;;-3.14;100.00;100501.63;1701354;83;21088;-66
2022/01/23 07:59:34;;;;;;;49.42;18.75;;;;;;;-3.14;100.00;100511.50;1683102;83;22091;-66
2022/01/23 08:02:12;;;;;;;68.67;23.85;;;;;;;-3.09;100.00;100524.50;1670861;85;21041;-66
2022/01/23 08:04:41;;;;;;;38.83;15.88;;;;;;;-3.11;100.00;100518.02;1702998;83;21037;-67
2022/01/23 08:07:21;;;;;;;47.35;15.60;;;;;;;-3.09;100.00;100520.64;1695714;83;21081;-64
2022/01/23 08:09:44;;;;;;;47.98;16.60;;;;;;;-3.11;100.00;100532.19;1679047;85;21033;-70
2022/01/23 08:12:11;;;;;;;31.23;13.55;;;;;;;-3.16;100.00;100541.09;1682764;84;21121;-65
2022/01/23 08:14:39;;;;;;;25.75;13.30;;;;;;;-3.19;100.00;100548.75;1682659;85;21136;-65
2022/01/23 08:17:05;;;;;;;22.62;11.85;;;;;;;-3.16;100.00;100548.81;1697205;83;21065;-67
2022/01/23 08:19:32;;;;;;;18.52;10.78;;;;;;;-3.09;100.00;100555.42;1711292;83;22413;-66
2022/01/23 08:21:59;;;;;;;24.10;12.15;;;;;;;-3.00;100.00;100559.52;1713155;83;21033;-66
2022/01/23 08:24:25;;;;;;;23.90;12.18;;;;;;;-2.86;100.00;100554.27;1712197;83;21065;-65
2022/01/23 08:26:51;;;;;;;20.72;11.05;;;;;;;-2.55;100.00;100564.03;1711512;83;21520;-65
2022/01/23 08:29:18;;;;;;;23.87;11.95;;;;;;;-2.30;100.00;100560.30;1711465;83;21121;-65
2022/01/23 08:31:45;;;;;;;24.23;12.03;;;;;;;-2.14;100.00;100574.38;1711433;83;22278;-65
2022/01/23 08:34:12;;;;;;;21.52;11.00;;;;;;;-2.09;100.00;100575.38;1711261;83;21584;-66
2022/01/23 08:36:39;;;;;;;22.13;10.95;;;;;;;-2.10;98.73;100581.36;1711200;83;21049;-67
2022/01/23 08:39:06;;;;;;;44.18;19.00;;;;;;;-2.11;98.26;100583.50;1710881;83;21061;-65
2022/01/23 08:41:50;;;;;;;25.02;12.80;;;;;;;-2.18;97.88;100594.53;1711736;83;21124;-66
2022/01/23 08:44:26;;;;;;;25.68;12.47;;;;;;;-2.20;98.48;100596.20;1711219;83;21557;-65
2022/01/23 08:46:52;;;;;;;21.60;11.43;;;;;;;-2.21;97.88;100597.02;1706800;83;21064;-65
2022/01/23 08:49:21;;;;;;;24.55;10.75;;;;;;;-2.29;98.36;100605.02;1706861;84;21040;-67
2022/01/23 08:51:48;;;;;;;18.62;10.40;;;;;;;-2.37;97.98;100610.89;1707245;84;21108;-65
2022/01/23 08:54:15;;;;;;;25.82;11.20;;;;;;;-2.45;97.16;100608.53;1709536;83;21549;-67
2022/01/23 08:56:42;;;;;;;43.80;20.00;;;;;;;-2.48;98.12;100614.92;1711883;83;21490;-66
2022/01/23 08:59:09;;;;;;;66.28;26.73;;;;;;;-2.45;98.03;100609.83;1711080;83;21069;-65
2022/01/23 09:01:36;;;;;;;31.52;14.43;;;;;;;-2.25;97.95;100618.45;1713522;83;21177;-65
2022/01/23 09:04:04;;;;;;;39.27;16.62;;;;;;;-2.12;98.19;100616.58;1719131;83;21073;-64
2022/01/23 09:06:30;;;;;;;22.35;12.73;;;;;;;-2.05;96.27;100622.33;1719070;83;21068;-65
2022/01/23 09:08:59;;;;;;;28.70;13.22;;;;;;;-2.07;95.74;100624.03;1719081;83;22105;-65
2022/01/23 09:16:28;;;;;;;31.23;15.60;;;;;;;-1.18;96.32;100624.52;1795524;79;22556;-67
2022/01/23 09:18:55;;;;;;;97.95;38.83;;;;;;;-0.26;98.41;100620.88;1755016;81;20977;-67
2022/01/23 09:21:22;;;;;;;50.15;22.17;;;;;;;0.99;97.11;100621.11;1733161;81;21979;-67
2022/01/23 09:23:49;;;;;;;31.42;15.43;;;;;;;3.59;90.74;100616.70;1724960;83;20973;-68
2022/01/23 09:26:18;;;;;;;22.50;12.60;;;;;;;3.59;90.74;100616.70;1706772;83;21693;-67
2022/01/23 09:28:45;;;;;;;28.57;14.20;;;;;;;4.77;83.06;100611.11;1747736;80;21147;-67
2022/01/23 09:31:15;;;;;;;20.25;12.20;;;;;;;5.65;72.95;100611.31;1725314;81;21096;-68
2022/01/23 09:33:40;;;;;;;22.32;12.30;;;;;;;6.26;66.99;100610.31;1745802;81;21110;-68
2022/01/23 09:36:08;;;;;;;18.35;10.03;;;;;;;6.90;63.22;100613.41;1735106;81;21053;-68
2022/01/23 09:38:35;;;;;;;16.85;10.18;;;;;;;7.48;53.73;100621.27;1725377;82;21044;-68
2022/01/23 09:41:02;;;;;;;15.68;10.15;;;;;;;7.09;51.15;100628.85;1729773;81;21104;-70
2022/01/23 09:43:28;;;;;;;14.60;9.35;;;;;;;6.95;51.12;100629.05;1752217;81;21157;-68
2022/01/23 09:45:55;;;;;;;19.23;12.47;;;;;;;6.58;50.73;100636.50;1727887;81;21096;-67
2022/01/23 09:48:21;;;;;;;15.40;9.33;;;;;;;6.29;51.47;100633.36;1711629;82;21067;-69
2022/01/23 09:50:49;;;;;;;12.63;8.15;;;;;;;6.03;52.92;100629.73;1707905;82;21050;-68
2022/01/23 09:53:16;;;;;;;11.75;7.60;;;;;;;5.69;52.18;100639.61;1725175;82;21061;-68
2022/01/23 09:55:46;;;;;;;11.05;7.05;;;;;;;5.19;52.97;100648.25;1732676;82;21089;-66
2022/01/23 09:58:16;;;;;;;13.98;7.58;;;;;;;4.92;54.04;100644.50;1719542;82;21114;-66
2022/01/23 10:00:42;;;;;;;15.35;8.43;;;;;;;4.95;54.48;100652.34;1727701;82;21068;-68
2022/01/23 10:03:09;;;;;;;12.85;7.58;;;;;;;4.45;53.56;100650.38;1721066;82;21584;-67
2022/01/23 10:05:37;;;;;;;15.35;9.23;;;;;;;3.84;54.59;100656.59;1738245;82;21073;-67
2022/01/23 10:08:07;;;;;;;17.52;9.25;;;;;;;3.15;55.80;100656.16;1731537;82;21556;-67
2022/01/23 10:10:38;;;;;;;20.32;11.70;;;;;;;2.36;58.63;100658.05;1731912;82;21814;-67
2022/01/23 10:13:02;;;;;;;21.65;11.90;;;;;;;1.65;61.10;100664.52;1729431;82;21072;-67
2022/01/23 10:15:32;;;;;;;20.97;11.95;;;;;;;1.08;63.56;100663.14;1711028;83;21073;-66
2022/01/23 10:17:59;;;;;;;19.35;11.12;;;;;;;0.55;65.82;100661.28;1722074;82;21133;-66
2022/01/23 10:20:26;;;;;;;19.23;11.57;;;;;;;0.16;67.08;100674.16;1720364;82;21113;-67
2022/01/23 10:22:55;;;;;;;24.80;12.53;;;;;;;-0.15;70.19;100690.08;1710343;82;21767;-65
2022/01/23 10:25:31;;;;;;;19.92;11.05;;;;;;;-0.15;70.19;100690.08;1704463;84;21414;-66
2022/01/23 10:28:09;;;;;;;20.45;12.00;;;;;;;-0.04;70.96;100696.30;1718023;82;22343;-67
2022/01/23 10:30:44;;;;;;;21.45;11.55;;;;;;;-0.02;69.84;100703.67;1733266;82;21132;-66
2022/01/23 10:33:32;;;;;;;29.80;14.70;;;;;;;-0.17;70.48;100706.02;1728776;82;21179;-68
2022/01/23 10:36:03;;;;;;;31.50;15.43;;;;;;;-0.11;71.60;100708.70;1733049;82;21587;-68
2022/01/23 10:38:53;;;;;;;32.33;13.93;;;;;;;0.34;71.41;100695.53;1720551;82;21095;-68
2022/01/23 10:50:05;;;;;;;46.88;19.52;;;;;;;0.20;70.17;100726.42;1715060;82;21141;-65
2022/01/23 10:52:44;;;;;;;27.37;11.88;;;;;;;0.19;70.59;100731.17;1718690;82;21018;-66
2022/01/23 10:55:17;;;;;;;19.85;10.13;;;;;;;0.47;70.23;100735.89;1713154;82;21077;-67
2022/01/23 10:57:46;;;;;;;21.80;11.25;;;;;;;0.49;68.80;100742.83;1716751;82;21071;-68
2022/01/23 11:00:31;;;;;;;19.60;11.22;;;;;;;0.51;70.33;100743.73;1657053;85;21140;-67
2022/01/23 11:03:03;;;;;;;19.42;10.90;;;;;;;0.71;69.24;100743.11;1673370;85;21215;-67
2022/01/23 11:05:33;;;;;;;20.12;10.00;;;;;;;0.66;68.89;100752.12;1669793;84;21069;-67
2022/01/23 11:08:02;;;;;;;22.17;10.95;;;;;;;0.51;68.32;100759.27;1685484;84;21119;-67
2022/01/23 11:10:29;;;;;;;24.77;12.43;;;;;;;0.17;68.84;100756.61;1621860;85;21068;-67
2022/01/23 11:18:38;;;;;;;21.87;11.10;;;;;;;-0.09;70.99;100767.83;1688385;83;21048;-67
2022/01/23 11:21:21;;;;;;;26.70;13.20;;;;;;;-0.25;72.47;100774.50;1692784;84;21595;-67
2022/01/23 11:23:56;;;;;;;26.93;12.50;;;;;;;-0.27;73.06;100776.18;1700883;84;21159;-67
2022/01/23 11:26:25;;;;;;;33.40;15.00;;;;;;;-0.24;72.36;100782.70;1700783;84;21575;-66
2022/01/23 11:28:54;;;;;;;32.50;14.47;;;;;;;-0.37;72.05;100795.83;1700448;84;21155;-66
2022/01/23 11:31:22;;;;;;;24.77;12.88;;;;;;;-0.66;72.21;100795.30;1647348;85;21320;-66
2022/01/23 11:33:50;;;;;;;31.85;15.50;;;;;;;-0.93;73.28;100800.80;1693947;84;21077;-66
2022/01/23 11:36:18;;;;;;;30.20;13.75;;;;;;;-1.08;74.64;100803.95;1700440;84;21120;-66
2022/01/23 11:38:46;;;;;;;24.55;12.45;;;;;;;-1.18;75.31;100808.03;1700479;84;21588;-66
2022/01/23 11:55:35;;;;;;;26.40;13.40;;;;;;;-0.50;75.24;100824.94;1662178;86;21091;-66
2022/01/23 11:58:05;;;;;;;24.37;12.63;;;;;;;-0.34;71.85;100832.14;1661692;86;21123;-66
2022/01/23 12:00:34;;;;;;;34.38;13.72;;;;;;;-0.42;70.26;100828.52;1662519;86;21075;-65
2022/01/23 12:03:18;;;;;;;23.05;11.35;;;;;;;-0.18;70.21;100827.22;1656507;86;21146;-67
2022/01/23 12:05:48;;;;;;;19.77;10.40;;;;;;;-0.07;69.72;100833.46;1656953;86;22000;-67
2022/01/23 12:08:33;;;;;;;32.60;14.03;;;;;;;-0.01;68.92;100834.44;1672211;85;21168;-67
2022/01/23 12:11:38;;;;;;;80.55;31.25;;;;;;;0.51;69.12;100843.94;1672387;85;21096;-66
2022/01/23 12:17:05;;;;;;;56.85;24.43;;;;;;;1.21;65.56;100844.90;1718855;83;21116;-65
2022/01/23 12:19:49;;;;;;;31.25;14.50;;;;;;;1.74;64.58;100846.37;1690079;84;21107;-66
2022/01/23 12:22:36;;;;;;;25.82;12.98;;;;;;;2.09;62.25;100845.44;1679762;84;21568;-65
2022/01/23 12:25:10;;;;;;;40.17;19.60;;;;;;;2.02;62.51;100860.93;1689840;84;21044;-66
2022/01/23 12:27:37;;;;;;;22.58;12.07;;;;;;;1.64;62.10;100866.61;1689455;84;21048;-66
2022/01/23 12:30:26;;;;;;;83.15;25.50;;;;;;;1.35;62.96;100874.91;1719143;83;21087;-66
2022/01/23 12:33:29;;;;;;;25.05;11.97;;;;;;;1.20;63.71;100885.12;1681248;84;21051;-65
2022/01/23 12:36:16;;;;;;;28.80;13.43;;;;;;;0.95;63.63;100901.63;1601384;88;21253;-72
2022/01/23 12:38:50;;;;;;;70.37;28.12;;;;;;;0.95;63.63;100901.63;1614761;88;21618;-72
2022/01/23 12:41:42;;;;;;;27.65;13.18;;;;;;;1.12;65.51;100907.05;1657634;84;21690;-71
2022/01/23 12:44:28;;;;;;;31.62;13.72;;;;;;;1.51;64.39;100912.75;1651533;84;21107;-73
2022/01/23 12:47:03;;;;;;;88.75;34.45;;;;;;;1.81;63.60;100913.10;1689357;84;21346;-72
2022/01/23 12:49:34;;;;;;;62.33;25.90;;;;;;;1.95;61.02;100926.24;1690001;84;21143;-73
2022/01/23 12:52:13;;;;;;;37.35;18.92;;;;;;;1.95;61.02;100926.24;1671525;84;21670;-73
2022/01/23 12:54:58;;;;;;;33.78;13.62;;;;;;;2.05;61.31;100930.70;1668332;85;21125;-71
2022/01/23 12:57:37;;;;;;;19.27;11.30;;;;;;;1.23;60.95;100949.58;1656934;86;21107;-70
2022/01/23 13:00:18;;;;;;;36.10;16.87;;;;;;;1.23;60.95;100949.58;1672228;85;21147;-77
2022/01/23 13:02:49;;;;;;;;;;;;;;;0.61;61.95;100949.06;1684190;84;21185;-72
2022/01/23 13:05:14;;;;;;;34.63;14.55;;;;;;;0.01;63.85;100957.48;1672770;84;20219;-73
2022/01/23 13:07:48;;;;;;;28.57;14.75;;;;;;;-0.46;65.70;100966.45;1685314;84;21082;-74
2022/01/23 13:11:22;;;;;;;27.58;13.68;;;;;;;-0.82;67.64;100966.54;1670821;84;21687;-73
2022/01/23 13:15:22;;;;;;;29.70;14.65;;;;;;;-1.49;70.36;100980.88;1681273;84;22006;-74
2022/01/23 13:31:59;;;;;;;19.95;10.28;;;;;;;-2.32;76.15;101008.30;1696145;83;21539;-71
2022/01/23 13:34:27;;;;;;;28.45;14.25;;;;;;;-2.41;77.07;101011.90;1689955;84;21119;-71
2022/01/23 13:37:12;;;;;;;22.52;11.12;;;;;;;-2.51;78.33;101017.17;1718810;83;28124;-72
2022/01/23 13:39:49;;;;;;;41.23;21.50;;;;;;;-2.64;78.91;101029.25;1690012;84;21571;-76
2022/01/23 13:42:42;;;;;;;56.75;26.57;;;;;;;-2.85;80.46;101024.28;1718846;83;21237;-72
2022/01/23 13:59:37;;;;;;;38.53;18.27;;;;;;;-3.00;84.37;101056.47;1694050;84;21620;-71
2022/01/23 14:02:15;;;;;;;21.35;11.33;;;;;;;-3.01;85.00;101056.02;1694560;84;21083;-72
2022/01/23 14:04:42;;;;;;;17.17;9.80;;;;;;;-3.02;85.26;101064.98;1689511;83;21033;-71
2022/01/23 14:07:08;;;;;;;19.27;9.55;;;;;;;-3.12;84.83;101070.25;1671778;84;21431;-69
2022/01/23 14:09:43;;;;;;;17.60;9.70;;;;;;;-3.20;84.81;101067.42;1688502;84;21152;-68
2022/01/23 14:12:12;;;;;;;35.50;17.32;;;;;;;-3.25;85.30;101071.52;1693559;84;21045;-68
2022/01/23 14:14:55;;;;;;;48.80;21.12;;;;;;;-3.31;85.84;101076.48;1701230;83;21036;-68
2022/01/23 14:17:25;;;;;;;21.27;10.68;;;;;;;-3.31;87.01;101086.79;1670041;84;21080;-69
2022/01/23 14:19:57;;;;;;;27.97;12.50;;;;;;;-3.34;87.94;101089.23;1688740;84;21047;-70
2022/01/23 14:22:33;;;;;;;24.43;9.85;;;;;;;-3.41;87.57;101089.85;1688574;84;22107;-69
2022/01/23 14:25:21;;;;;;;17.98;9.43;;;;;;;-3.44;87.58;101094.91;1685931;84;21123;-69
2022/01/23 14:28:06;;;;;;;19.00;9.83;;;;;;;-3.47;88.15;101087.08;1688200;84;21175;-68
2022/01/23 14:30:34;;;;;;;21.65;10.90;;;;;;;-3.51;88.23;101089.08;1687204;84;21040;-69
2022/01/23 14:33:22;;;;;;;20.45;10.13;;;;;;;-3.52;88.72;101087.31;1687234;84;21554;-68
2022/01/23 14:35:50;;;;;;;28.55;13.98;;;;;;;-3.52;89.50;101079.20;1689344;84;21165;-69
2022/01/23 14:38:20;;;;;;;21.65;10.25;;;;;;;-3.52;89.62;101083.45;1688516;84;21528;-68
2022/01/23 14:41:09;;;;;;;28.45;11.68;;;;;;;-3.55;90.03;101091.94;1687458;83;21075;-68
2022/01/23 14:43:40;;;;;;;20.57;10.18;;;;;;;-3.60;90.28;101096.92;1688354;84;21083;-68
2022/01/23 14:46:09;;;;;;;;;;;;;;;-3.66;90.91;101101.87;1663591;84;21126;-68